Aérodrome :
LOGIN :

S'inscrire | Disclaimer

   EN    FR    IT 

 










Légende :    VFR   VFR Marginal   IFR   IFR Intensif   IFR Très Intensif
Visi : 
Plafond : 
>= 8 km
>= 3000ft
5 à 8 km
1000 à 3000 ft
1500m à 5 km
500 à 1000 ft
800 à 1500m
200 à 500 ft
< 800m
< 200 ft
Symboles :   Orages  Brouillard  Fortes neiges  Fortes précipitations  Vent > 20 kt
SIGMETs :   Divers  Orages  Givrage  Turbulence  Onde Orograph.  Cendres Volcan.






- Altitude de l'aérodrome : 357 ft
- Code IATA : TUF


LFOT - Tours

DERNIER METAR :
  • 051900Z AUTO 31003KT 290V350 0350 0250 R20/0550N FZFG VV/// M00/M00 Q1023

METARs EXPIRÉS :
  • 051830Z AUTO 32005KT 300V360 0350 0300 R20/0500N FG VV/// 00/00 Q1023
  • 051800Z AUTO 31003KT 0350 0300 R20/0400N FG VV/// 00/00 Q1023
  • 051730Z AUTO 31002KT 0400 0300 R20/0550N FG VV/// 01/00 Q1023
  • 051700Z AUTO 33003KT 4400 BR NSC 02/01 Q1023
  • 051630Z AUTO 30004KT 270V340 7000 NSC 04/02 Q1023

Prévision TAF périmée.



MET'MAP, la Météo Aéronautique d'un coup d'oeil ! - Copyright ORBIFLY Décembre 2007 - Disclaimer

ORBIFLY MET'MAP TEAM :

Programmation & Développement : Alexandra Zaïnal
Sur une idée originale de : Baudouin d'Aumeries
Assistance à la programmation : Marc-Olivier Méhu
Soutien technique & logistique : Manuel Goepfert

Contact : metmap@orbifly.com




SOURCES & CREDITS :

   NOAA